createdAt,value
2023-04-28T00:00:29.418Z,45.43
2023-04-28T00:02:57.193Z,45.60
2023-04-28T00:05:25.257Z,45.07
2023-04-28T00:07:52.720Z,45.55
2023-04-28T00:10:20.667Z,46.08
2023-04-28T00:12:48.445Z,47.47
2023-04-28T00:15:16.128Z,46.30
2023-04-28T00:17:44.317Z,46.40
2023-04-28T00:20:12.463Z,45.35
2023-04-28T00:22:40.094Z,45.87
2023-04-28T00:25:08.637Z,45.51
2023-04-28T00:27:36.532Z,45.37
2023-04-28T00:30:04.437Z,45.28
2023-04-28T00:32:33.973Z,44.72
2023-04-28T00:35:01.429Z,45.83
2023-04-28T00:37:28.813Z,46.60
2023-04-28T00:39:59.284Z,46.24
2023-04-28T00:42:35.825Z,45.71
2023-04-28T00:45:06.555Z,46.54
2023-04-28T00:47:35.068Z,46.96
2023-04-28T00:50:06.565Z,47.98
2023-04-28T00:52:34.316Z,47.58
2023-04-28T00:55:02.303Z,47.88
2023-04-28T00:57:31.209Z,48.65
2023-04-28T01:00:01.021Z,47.71
2023-04-28T01:02:30.148Z,48.23
2023-04-28T01:04:58.410Z,48.03
2023-04-28T01:07:25.924Z,48.33
2023-04-28T01:09:53.438Z,48.31
2023-04-28T01:12:21.561Z,48.18
2023-04-28T01:14:50.031Z,47.95
2023-04-28T01:17:17.837Z,47.57
2023-04-28T01:19:45.457Z,47.60
2023-04-28T01:22:15.431Z,47.77
2023-04-28T01:24:43.300Z,47.66
2023-04-28T01:27:11.724Z,47.84
2023-04-28T01:29:39.594Z,48.23
2023-04-28T01:32:07.763Z,48.38
2023-04-28T01:34:35.600Z,48.80
2023-04-28T01:37:05.816Z,49.21
2023-04-28T01:39:33.435Z,49.35
2023-04-28T01:42:02.268Z,49.54
2023-04-28T01:44:29.693Z,49.91
2023-04-28T01:46:57.545Z,50.37
2023-04-28T01:49:25.309Z,50.40
2023-04-28T01:51:52.836Z,50.79
2023-04-28T01:54:21.042Z,51.91
2023-04-28T01:56:50.263Z,52.33
2023-04-28T01:59:20.492Z,51.18
2023-04-28T02:01:47.997Z,51.06
2023-04-28T02:04:18.325Z,50.53
2023-04-28T02:06:46.044Z,50.24
2023-04-28T02:09:13.565Z,50.31
2023-04-28T02:11:41.241Z,50.05
2023-04-28T02:14:08.630Z,49.28
2023-04-28T02:16:36.153Z,48.34
2023-04-28T02:19:03.820Z,48.93
2023-04-28T02:21:31.897Z,49.08
2023-04-28T02:23:59.617Z,49.05
2023-04-28T02:26:28.690Z,48.91
2023-04-28T02:28:56.388Z,49.26
2023-04-28T02:31:23.831Z,48.98
2023-04-28T02:33:54.503Z,49.14
2023-04-28T02:36:23.822Z,49.30
2023-04-28T02:38:51.197Z,49.35
2023-04-28T02:41:18.608Z,49.74
2023-04-28T02:43:46.378Z,49.36
2023-04-28T02:46:13.906Z,49.13
2023-04-28T02:48:42.642Z,49.21
2023-04-28T02:51:14.213Z,49.29
2023-04-28T02:53:41.967Z,49.55
2023-04-28T02:56:11.168Z,49.56
2023-04-28T02:58:38.604Z,49.76
2023-04-28T03:01:07.658Z,49.58
2023-04-28T03:03:35.669Z,49.50
2023-04-28T03:06:03.285Z,49.66
2023-04-28T03:08:30.687Z,49.36
2023-04-28T03:10:58.414Z,49.55
2023-04-28T03:13:25.942Z,49.18
2023-04-28T03:15:53.593Z,49.21
2023-04-28T03:18:22.540Z,49.45
2023-04-28T03:20:50.645Z,50.00
2023-04-28T03:23:18.091Z,49.63
2023-04-28T03:25:45.721Z,49.39
2023-04-28T03:28:13.167Z,49.86
2023-04-28T03:30:40.924Z,49.02
2023-04-28T03:33:08.584Z,49.22
2023-04-28T03:35:36.126Z,49.16
2023-04-28T03:38:03.590Z,49.10
2023-04-28T03:40:32.526Z,49.91
2023-04-28T03:43:04.772Z,50.30
2023-04-28T03:45:33.425Z,50.16
2023-04-28T03:48:01.942Z,49.77
2023-04-28T03:50:29.571Z,49.36
2023-04-28T03:52:57.641Z,49.38
2023-04-28T03:55:26.213Z,49.83
2023-04-28T03:57:53.721Z,50.76
2023-04-28T04:00:21.383Z,51.31
2023-04-28T04:02:49.182Z,50.64
2023-04-28T04:05:17.046Z,50.69
2023-04-28T04:07:44.748Z,50.87
2023-04-28T04:10:12.397Z,50.84
2023-04-28T04:12:40.636Z,50.87
2023-04-28T04:15:08.832Z,50.67
2023-04-28T04:17:36.978Z,50.55
2023-04-28T04:20:04.769Z,50.75
2023-04-28T04:22:32.163Z,50.84
2023-04-28T04:24:59.822Z,50.08
2023-04-28T04:27:27.237Z,49.08
2023-04-28T04:29:54.800Z,48.53
2023-04-28T04:32:23.023Z,47.56
2023-04-28T04:34:50.493Z,46.09
2023-04-28T04:37:19.342Z,45.37
2023-04-28T04:39:47.363Z,45.08
2023-04-28T04:42:24.683Z,44.57
2023-04-28T04:44:54.036Z,43.90
2023-04-28T04:47:22.904Z,43.27
2023-04-28T04:49:51.272Z,42.69
2023-04-28T04:52:19.058Z,41.02
2023-04-28T04:54:46.500Z,39.17
2023-04-28T04:57:14.446Z,40.89
2023-04-28T04:59:44.153Z,40.65
2023-04-28T05:02:12.518Z,40.56
2023-04-28T05:04:40.574Z,40.60
2023-04-28T05:07:08.614Z,40.17
2023-04-28T05:09:39.246Z,39.14
2023-04-28T05:12:06.890Z,39.34
2023-04-28T05:14:34.975Z,38.55
2023-04-28T05:17:02.901Z,38.26
2023-04-28T05:19:31.977Z,39.36
2023-04-28T05:22:00.977Z,40.48
2023-04-28T05:24:30.632Z,38.79
2023-04-28T05:26:59.050Z,38.33
2023-04-28T05:29:26.812Z,37.06
2023-04-28T05:31:54.353Z,37.36
2023-04-28T05:34:22.753Z,37.33
2023-04-28T05:36:51.983Z,37.35
2023-04-28T05:39:19.880Z,37.77
2023-04-28T05:41:47.278Z,38.97
2023-04-28T05:44:15.303Z,38.75
2023-04-28T05:46:42.884Z,36.68
2023-04-28T05:49:11.162Z,37.03
2023-04-28T05:51:39.846Z,38.17
2023-04-28T05:54:07.387Z,38.88
2023-04-28T05:56:36.031Z,37.88
2023-04-28T05:59:04.634Z,38.30
2023-04-28T06:01:32.301Z,38.20
2023-04-28T06:04:00.171Z,38.44
2023-04-28T06:06:28.037Z,37.65
2023-04-28T06:08:55.512Z,38.62
2023-04-28T06:11:23.282Z,39.69
2023-04-28T06:13:51.243Z,40.78
2023-04-28T06:16:19.126Z,41.22
2023-04-28T06:18:49.206Z,41.23
2023-04-28T06:21:17.544Z,40.60
2023-04-28T06:23:44.930Z,39.73
2023-04-28T06:26:13.155Z,39.73
2023-04-28T06:28:40.839Z,39.76
2023-04-28T06:31:09.077Z,39.55
2023-04-28T06:33:36.769Z,39.24
2023-04-28T06:36:04.350Z,38.51
2023-04-28T06:38:31.873Z,38.76
2023-04-28T06:40:59.901Z,37.83
2023-04-28T06:43:27.648Z,37.94
2023-04-28T06:45:57.676Z,38.40
2023-04-28T06:48:26.229Z,39.20
2023-04-28T06:50:53.638Z,38.67
2023-04-28T06:53:23.018Z,38.57
2023-04-28T06:55:50.757Z,38.83
2023-04-28T06:58:18.195Z,39.59
2023-04-28T07:00:45.867Z,38.95
2023-04-28T07:03:13.627Z,39.93
2023-04-28T07:05:41.143Z,38.82
2023-04-28T07:08:08.526Z,39.21
2023-04-28T07:10:36.342Z,39.05
2023-04-28T07:13:03.716Z,39.00
2023-04-28T07:15:31.995Z,39.86
2023-04-28T07:17:59.945Z,39.21
2023-04-28T07:20:27.812Z,38.54
2023-04-28T07:22:55.244Z,38.33
2023-04-28T07:25:23.452Z,39.01
2023-04-28T07:27:50.927Z,39.90
2023-04-28T07:30:27.285Z,39.29
2023-04-28T07:32:56.706Z,38.81
2023-04-28T07:35:24.430Z,37.69
2023-04-28T07:37:52.475Z,38.08
2023-04-28T07:40:20.486Z,37.80
2023-04-28T07:42:48.028Z,37.30
2023-04-28T07:45:16.279Z,37.26
2023-04-28T07:47:44.036Z,36.10
2023-04-28T07:50:12.097Z,36.13
2023-04-28T07:52:39.753Z,35.97
2023-04-28T07:55:07.741Z,34.87
2023-04-28T07:57:35.860Z,35.83
2023-04-28T08:00:03.812Z,35.32
2023-04-28T08:02:39.084Z,34.97
2023-04-28T08:05:09.280Z,34.10
2023-04-28T08:07:37.314Z,34.28
2023-04-28T08:10:05.306Z,34.96
2023-04-28T08:12:33.026Z,35.21
2023-04-28T08:15:00.624Z,35.76
2023-04-28T08:17:28.112Z,36.68
2023-04-28T08:19:55.831Z,36.37
2023-04-28T08:22:23.203Z,35.09
2023-04-28T08:24:50.609Z,35.49
2023-04-28T08:27:18.493Z,34.95
2023-04-28T08:29:45.890Z,33.40
2023-04-28T08:32:13.301Z,33.59
2023-04-28T08:34:40.921Z,34.16
2023-04-28T08:37:08.331Z,32.18
2023-04-28T08:39:35.774Z,33.32
2023-04-28T08:42:07.327Z,33.76
2023-04-28T08:44:39.190Z,33.56
2023-04-28T08:47:13.210Z,33.07
2023-04-28T08:49:41.296Z,34.65
2023-04-28T08:52:13.645Z,34.03
2023-04-28T08:54:41.672Z,33.40
2023-04-28T08:57:10.312Z,32.56
2023-04-28T08:59:41.655Z,33.61
2023-04-28T09:02:09.517Z,31.64
2023-04-28T09:04:37.314Z,32.89
2023-04-28T09:07:11.176Z,32.82
2023-04-28T09:09:41.149Z,31.26
2023-04-28T09:12:09.170Z,30.65
2023-04-28T09:14:37.906Z,30.78
2023-04-28T09:17:13.305Z,30.70
2023-04-28T09:19:43.559Z,30.76
2023-04-28T09:22:25.531Z,30.53
2023-04-28T09:24:55.390Z,29.87
2023-04-28T09:27:28.238Z,29.34
2023-04-28T09:29:55.816Z,27.11
2023-04-28T09:32:24.797Z,29.11
2023-04-28T09:34:56.825Z,29.42
2023-04-28T09:37:27.299Z,28.94
2023-04-28T09:39:55.434Z,28.55
2023-04-28T09:42:42.664Z,28.57
2023-04-28T09:45:12.045Z,27.30
2023-04-28T09:47:46.924Z,28.13
2023-04-28T09:50:17.492Z,27.33
2023-04-28T09:52:56.678Z,26.85
2023-04-28T09:55:24.944Z,26.91
2023-04-28T09:57:54.912Z,26.47
2023-04-28T10:00:23.029Z,27.42
2023-04-28T10:02:51.979Z,26.70
2023-04-28T10:05:20.192Z,27.77
2023-04-28T10:07:47.885Z,26.51
2023-04-28T10:10:15.672Z,26.88
2023-04-28T10:12:44.148Z,26.98
2023-04-28T10:15:13.337Z,28.10
2023-04-28T10:17:41.121Z,27.83
2023-04-28T10:20:09.078Z,28.59
2023-04-28T10:23:06.758Z,28.05
2023-04-28T10:25:37.032Z,29.04
2023-04-28T10:28:08.811Z,28.26
2023-04-28T10:30:38.442Z,26.65
2023-04-28T10:33:09.383Z,27.05
2023-04-28T10:35:47.554Z,26.94
2023-04-28T10:38:16.711Z,28.26
2023-04-28T10:40:45.032Z,28.08
2023-04-28T10:43:13.812Z,28.03
2023-04-28T10:45:56.804Z,26.81
2023-04-28T10:48:46.805Z,27.13
2023-04-28T10:51:22.616Z,27.50
2023-04-28T10:53:52.425Z,28.66
2023-04-28T10:56:27.844Z,27.02
2023-04-28T10:58:59.260Z,27.00
2023-04-28T11:01:34.888Z,27.17
2023-04-28T11:04:16.080Z,28.56
2023-04-28T11:06:46.022Z,27.48
2023-04-28T11:09:22.521Z,27.80
2023-04-28T11:12:02.229Z,28.42
2023-04-28T11:14:33.253Z,27.07
2023-04-28T11:17:03.120Z,26.75
2023-04-28T11:19:33.320Z,27.29
2023-04-28T11:22:02.925Z,27.93
2023-04-28T11:24:32.348Z,28.67
2023-04-28T11:27:00.678Z,27.53
2023-04-28T11:29:31.846Z,27.29
2023-04-28T11:32:00.001Z,27.78
2023-04-28T11:34:27.523Z,27.89
2023-04-28T11:36:55.192Z,27.88
2023-04-28T11:39:30.652Z,28.01
2023-04-28T11:42:02.962Z,29.08
2023-04-28T11:44:31.301Z,29.03
2023-04-28T11:47:01.775Z,28.97
2023-04-28T11:49:42.671Z,28.81
2023-04-28T11:52:10.871Z,29.38
2023-04-28T11:54:38.839Z,28.74
2023-04-28T11:57:06.747Z,28.70
2023-04-28T11:59:35.777Z,28.58
2023-04-28T12:02:06.858Z,29.01
2023-04-28T12:04:36.704Z,29.62
2023-04-28T12:07:15.737Z,29.46
2023-04-28T12:09:48.857Z,29.20
2023-04-28T12:12:40.028Z,28.89
2023-04-28T12:15:13.395Z,29.27
2023-04-28T12:17:42.326Z,29.47
2023-04-28T12:20:18.142Z,29.53
2023-04-28T12:22:47.905Z,29.29
2023-04-28T12:25:17.924Z,28.70
2023-04-28T12:28:10.724Z,28.55
2023-04-28T12:30:41.747Z,29.73
2023-04-28T12:33:27.634Z,30.26
2023-04-28T12:35:57.053Z,29.51
2023-04-28T12:38:25.527Z,28.81
2023-04-28T12:40:53.288Z,28.85
2023-04-28T12:43:23.314Z,28.70
2023-04-28T12:45:53.333Z,29.31
2023-04-28T12:48:22.386Z,29.08
2023-04-28T12:50:49.821Z,28.86
2023-04-28T12:53:17.481Z,29.44
2023-04-28T12:55:44.897Z,28.71
2023-04-28T12:58:12.475Z,28.74
2023-04-28T13:00:41.822Z,29.24
2023-04-28T13:03:10.208Z,29.96
2023-04-28T13:05:37.686Z,30.61
2023-04-28T13:08:05.592Z,28.88
2023-04-28T13:10:33.024Z,28.28
2023-04-28T13:13:00.395Z,28.19
2023-04-28T13:15:28.071Z,28.74
2023-04-28T13:17:55.457Z,29.05
2023-04-28T13:20:23.044Z,30.07
2023-04-28T13:22:50.702Z,30.77
2023-04-28T13:25:18.078Z,30.54
2023-04-28T13:27:46.053Z,30.94
2023-04-28T13:30:13.856Z,28.70
2023-04-28T13:32:41.461Z,29.28
2023-04-28T13:35:09.561Z,29.05
2023-04-28T13:37:42.562Z,28.54
2023-04-28T13:40:10.662Z,29.72
2023-04-28T13:42:38.385Z,29.16
2023-04-28T13:45:06.203Z,28.56
2023-04-28T13:47:33.694Z,28.19
2023-04-28T13:50:01.336Z,28.92
2023-04-28T13:52:28.759Z,28.09
2023-04-28T13:54:56.244Z,29.73
2023-04-28T13:57:24.051Z,29.23
2023-04-28T13:59:51.450Z,29.59
2023-04-28T14:02:19.137Z,28.94
2023-04-28T14:04:49.349Z,29.61
2023-04-28T14:07:17.077Z,29.54
2023-04-28T14:09:44.626Z,31.93
2023-04-28T14:12:13.845Z,29.45
2023-04-28T14:14:41.621Z,29.74
2023-04-28T14:17:10.125Z,29.34
2023-04-28T14:19:37.783Z,29.64
2023-04-28T14:22:05.306Z,29.63
2023-04-28T14:24:32.939Z,30.15
2023-04-28T14:27:00.547Z,29.93
2023-04-28T14:29:27.928Z,29.51
2023-04-28T14:31:55.335Z,30.65
2023-04-28T14:34:24.327Z,31.26
2023-04-28T14:36:51.762Z,30.02
2023-04-28T14:39:19.129Z,30.62
2023-04-28T14:41:48.812Z,30.85
2023-04-28T14:44:16.598Z,30.26
2023-04-28T14:46:44.089Z,30.30
2023-04-28T14:49:11.856Z,30.79
2023-04-28T14:51:39.225Z,30.96
2023-04-28T14:54:06.672Z,30.79
2023-04-28T14:56:34.412Z,30.45
2023-04-28T14:59:01.815Z,30.69
2023-04-28T15:01:30.544Z,30.72
2023-04-28T15:03:58.675Z,31.09
2023-04-28T15:06:26.849Z,31.79
2023-04-28T15:08:54.238Z,30.58
2023-04-28T15:11:22.059Z,30.63
2023-04-28T15:13:49.459Z,30.93
2023-04-28T15:16:16.981Z,30.99
2023-04-28T15:18:46.019Z,30.98
2023-04-28T15:21:13.492Z,31.27
2023-04-28T15:23:40.986Z,31.18
2023-04-28T15:26:10.856Z,31.17
2023-04-28T15:28:38.323Z,31.02
2023-04-28T15:31:06.210Z,31.19
2023-04-28T15:33:34.047Z,31.37
2023-04-28T15:36:01.652Z,31.24
2023-04-28T15:38:31.305Z,31.12
2023-04-28T15:40:58.945Z,31.22
2023-04-28T15:43:26.329Z,31.96
2023-04-28T15:45:53.892Z,32.54
2023-04-28T15:48:23.211Z,32.15
2023-04-28T15:50:50.624Z,31.80
2023-04-28T15:53:18.527Z,31.65
2023-04-28T15:55:46.228Z,31.42
2023-04-28T15:58:13.663Z,31.77
2023-04-28T16:00:42.567Z,31.95
2023-04-28T16:03:10.429Z,33.11
2023-04-28T16:05:38.593Z,32.45
2023-04-28T16:08:06.120Z,32.38
2023-04-28T16:10:33.909Z,32.41
2023-04-28T16:13:01.507Z,32.04
2023-04-28T16:15:29.254Z,32.50
2023-04-28T16:17:58.746Z,32.27
2023-04-28T16:20:26.153Z,32.29
2023-04-28T16:22:53.772Z,32.58
2023-04-28T16:25:21.705Z,32.52
2023-04-28T16:27:49.337Z,35.01
2023-04-28T16:30:17.874Z,32.85
2023-04-28T16:32:45.726Z,32.49
2023-04-28T16:35:15.223Z,32.58
2023-04-28T16:37:43.534Z,33.49
2023-04-28T16:40:13.388Z,34.02
2023-04-28T16:42:42.314Z,33.62
2023-04-28T16:45:10.770Z,33.82
2023-04-28T16:47:42.581Z,34.33
2023-04-28T16:50:11.377Z,34.33
2023-04-28T16:52:39.102Z,34.45
2023-04-28T16:55:07.107Z,34.35
2023-04-28T16:57:34.468Z,34.66
2023-04-28T17:00:02.506Z,34.58
2023-04-28T17:02:30.077Z,36.20
2023-04-28T17:04:57.724Z,35.00
2023-04-28T17:07:26.042Z,35.39
2023-04-28T17:09:53.727Z,34.90
2023-04-28T17:12:23.204Z,35.23
2023-04-28T17:14:51.189Z,36.02
2023-04-28T17:17:18.652Z,36.26
2023-04-28T17:19:46.051Z,36.56
2023-04-28T17:22:13.768Z,36.73
2023-04-28T17:24:41.164Z,36.60
2023-04-28T17:27:09.431Z,36.76
2023-04-28T17:29:37.076Z,36.62
2023-04-28T17:32:04.626Z,37.19
2023-04-28T17:34:31.996Z,36.84
2023-04-28T17:36:59.753Z,36.64
2023-04-28T17:39:27.290Z,38.23
2023-04-28T17:41:55.627Z,37.81
2023-04-28T17:44:23.336Z,37.87
2023-04-28T17:46:50.870Z,37.71
2023-04-28T17:49:18.825Z,38.46
2023-04-28T17:51:49.318Z,39.46
2023-04-28T17:54:17.085Z,40.50
2023-04-28T17:56:44.474Z,39.83
2023-04-28T17:59:14.589Z,39.25
2023-04-28T18:01:42.251Z,39.05
2023-04-28T18:04:11.125Z,39.96
2023-04-28T18:06:38.783Z,39.96
2023-04-28T18:09:06.969Z,41.48
2023-04-28T18:11:34.800Z,40.55
2023-04-28T18:14:03.241Z,41.25
2023-04-28T18:16:31.133Z,43.11
2023-04-28T18:18:59.497Z,44.21
2023-04-28T18:21:28.170Z,44.77
2023-04-28T18:23:55.860Z,46.06
2023-04-28T18:26:24.616Z,46.87
2023-04-28T18:28:53.092Z,47.44
2023-04-28T18:31:20.795Z,47.88
2023-04-28T18:33:49.203Z,49.32
2023-04-28T18:36:17.513Z,49.38
2023-04-28T18:38:47.071Z,49.34
2023-04-28T18:41:18.328Z,50.47
2023-04-28T18:43:46.057Z,50.67
2023-04-28T18:46:14.088Z,51.54
2023-04-28T18:48:42.771Z,51.98
2023-04-28T18:51:10.742Z,52.58
2023-04-28T18:53:38.659Z,52.82
2023-04-28T18:56:08.972Z,53.64
2023-04-28T18:58:41.465Z,53.31
2023-04-28T19:01:19.959Z,53.49
2023-04-28T19:03:47.534Z,53.52
2023-04-28T19:06:16.647Z,53.41
2023-04-28T19:08:44.900Z,53.00
2023-04-28T19:11:12.774Z,53.64
2023-04-28T19:13:45.606Z,53.76
2023-04-28T19:16:14.621Z,53.90
2023-04-28T19:18:44.482Z,54.39
2023-04-28T19:21:13.953Z,54.42
2023-04-28T19:23:42.031Z,54.61
2023-04-28T19:26:10.139Z,55.09
2023-04-28T19:28:38.646Z,54.91
2023-04-28T19:31:06.905Z,55.16
2023-04-28T19:33:35.490Z,55.54
2023-04-28T19:36:05.854Z,55.50
2023-04-28T19:38:36.088Z,55.32
2023-04-28T19:41:04.479Z,55.66
2023-04-28T19:43:32.671Z,55.37
2023-04-28T19:46:02.439Z,55.76
2023-04-28T19:48:31.413Z,55.33
2023-04-28T19:51:01.479Z,56.12
2023-04-28T19:53:30.175Z,56.68
2023-04-28T19:56:01.161Z,57.56
2023-04-28T19:58:30.139Z,57.59
2023-04-28T20:01:01.626Z,57.22
2023-04-28T20:03:30.240Z,58.11
2023-04-28T20:05:58.442Z,57.78
2023-04-28T20:08:28.847Z,58.30
2023-04-28T20:10:57.656Z,59.04
2023-04-28T20:13:27.249Z,59.04
2023-04-28T20:15:56.153Z,59.04
2023-04-28T20:18:24.565Z,58.41
2023-04-28T20:20:53.921Z,59.51
2023-04-28T20:23:21.689Z,58.80
2023-04-28T20:25:50.553Z,58.47
2023-04-28T20:28:19.053Z,58.59
2023-04-28T20:30:47.084Z,58.26
2023-04-28T20:33:18.925Z,58.53
2023-04-28T20:35:46.757Z,58.72
2023-04-28T20:38:14.645Z,58.92
2023-04-28T20:40:42.015Z,59.52
2023-04-28T20:43:09.857Z,58.47
2023-04-28T20:45:37.949Z,58.32
2023-04-28T20:48:05.618Z,58.03
2023-04-28T20:50:38.489Z,58.00
2023-04-28T20:53:06.319Z,56.46
2023-04-28T20:55:33.761Z,57.67
2023-04-28T20:58:01.215Z,57.38
2023-04-28T21:00:28.957Z,57.84
2023-04-28T21:02:56.480Z,57.60
2023-04-28T21:05:24.114Z,57.48
2023-04-28T21:07:52.047Z,57.47
2023-04-28T21:10:23.356Z,56.82
2023-04-28T21:12:50.947Z,57.01
2023-04-28T21:15:18.645Z,55.53
2023-04-28T21:17:46.463Z,56.38
2023-04-28T21:20:14.752Z,55.92
2023-04-28T21:22:48.104Z,53.00
2023-04-28T21:25:16.668Z,56.12
2023-04-28T21:27:45.297Z,55.51
2023-04-28T21:30:14.702Z,55.81
2023-04-28T21:32:42.200Z,55.24
2023-04-28T21:35:10.915Z,54.97
2023-04-28T21:37:38.750Z,55.57
2023-04-28T21:40:06.870Z,54.95
2023-04-28T21:42:35.074Z,54.75
2023-04-28T21:45:02.518Z,54.52
2023-04-28T21:47:30.284Z,55.94
2023-04-28T21:49:57.987Z,55.40
2023-04-28T21:52:25.355Z,55.92
2023-04-28T21:54:52.816Z,56.16
2023-04-28T21:57:20.516Z,55.97
2023-04-28T21:59:50.218Z,56.83
2023-04-28T22:02:18.219Z,57.48
2023-04-28T22:04:46.012Z,56.71
2023-04-28T22:07:13.988Z,56.74
2023-04-28T22:09:41.528Z,57.80
2023-04-28T22:12:09.223Z,57.67
2023-04-28T22:14:41.021Z,56.84
2023-04-28T22:17:11.632Z,56.29
2023-04-28T22:19:39.193Z,56.62
2023-04-28T22:22:08.759Z,59.59
2023-04-28T22:24:38.088Z,57.00
2023-04-28T22:27:05.430Z,58.19
2023-04-28T22:29:32.862Z,57.63
2023-04-28T22:32:00.589Z,58.80
2023-04-28T22:34:28.127Z,59.87
2023-04-28T22:36:55.574Z,58.76
2023-04-28T22:39:25.212Z,58.74
2023-04-28T22:41:52.779Z,60.17
2023-04-28T22:44:20.162Z,60.41
2023-04-28T22:46:47.912Z,61.22
2023-04-28T22:49:15.454Z,60.71
2023-04-28T22:51:42.958Z,60.22
2023-04-28T22:54:10.845Z,59.88
2023-04-28T22:56:38.190Z,58.94
2023-04-28T22:59:05.653Z,58.56
2023-04-28T23:01:33.409Z,58.82
2023-04-28T23:04:01.015Z,58.86
2023-04-28T23:06:32.170Z,59.05
2023-04-28T23:08:59.896Z,59.26
2023-04-28T23:11:27.474Z,58.94
2023-04-28T23:13:54.834Z,58.97
2023-04-28T23:16:23.018Z,60.59
2023-04-28T23:18:50.545Z,59.54
2023-04-28T23:21:17.922Z,59.40
2023-04-28T23:23:45.618Z,58.85
2023-04-28T23:26:13.020Z,59.08
2023-04-28T23:28:40.432Z,59.28
2023-04-28T23:31:08.099Z,58.41
2023-04-28T23:33:35.460Z,59.00
2023-04-28T23:36:02.804Z,58.52
2023-04-28T23:38:30.562Z,58.52
2023-04-28T23:40:58.172Z,58.13
2023-04-28T23:43:25.897Z,58.51
2023-04-28T23:45:53.735Z,58.05
2023-04-28T23:48:22.168Z,59.57
2023-04-28T23:50:50.551Z,59.69
2023-04-28T23:53:18.264Z,59.63
2023-04-28T23:55:45.731Z,58.86
2023-04-28T23:58:13.087Z,59.11
